Preemption, Illinois
Current Conditions -  °F | °C
As of 9:52 PM on Thursday 18 Dec 2014 (Local Time) from KMLI Reporting Station
Few Clouds Few Clouds  
Wind Chill: 22°   Ceiling: Unl
Heat Index: 22°   Visibility: 8mi
Dew Point: 16°   Wind: 0mph
Humidity: 78%   Direction: NA
Pressure: 30.29"   Gusts: NA
Location:  41.31°N, 90.58°W
Report Text: KMLI 190352Z AUTO 00000KT 8SM FEW055 M06/M09 A3029 RMK AO2 SLP267 T10561089
Loading
Personal Weather Stations






























Interactive Weather Map New forecast layout! Learn more

10-Day Weather Forecast

Advertisements
Track Severe Weather on mobile